Time;durP1;ratioP1;P1;durP2;ratioP2;P2;SDS_P1;SDS_P2;PMS_P1;PMS_P2;Temp;Humidity;BMP_temperature;BMP_pressure;BME280_temperature;BME280_humidity;BME280_pressure;Samples;Min_cycle;Max_cycle;Signal;HPM_P1;HPM_P2
2021/05/06 00:00:07;;;;;;;4.95;2.47;;;6.50;99.90;;;6.31;97.33;100751.66;5060739;28;20052;-59
2021/05/06 00:11:11;;;;;;;4.35;2.35;;;6.40;99.90;;;6.09;99.15;100764.06;5076630;28;20048;-60
2021/05/06 00:32:49;;;;;;;7.40;3.05;;;6.30;99.90;;;5.97;100.00;100754.66;5074930;28;20097;-62
2021/05/06 00:35:15;;;;;;;3.42;2.80;;;6.30;99.90;;;5.94;100.00;100745.03;5058679;28;20033;-62
2021/05/06 00:37:47;;;;;;;3.92;3.08;;;6.30;99.90;;;5.92;100.00;100752.44;5075561;28;20035;-62
2021/05/06 00:40:16;;;;;;;6.70;3.22;;;6.20;99.90;;;5.89;100.00;100758.19;5042796;28;20116;-61
2021/05/06 00:43:00;;;;;;;4.38;3.03;;;6.20;99.90;;;5.93;100.00;100754.13;5074286;28;20052;-62
2021/05/06 00:45:59;;;;;;;4.55;3.58;;;6.20;99.90;;;5.93;100.00;100756.84;5045797;28;20064;-60
2021/05/06 00:54:22;;;;;;;5.78;4.35;;;6.10;99.90;;;5.78;100.00;100739.63;5075369;28;20506;-60
2021/05/06 00:56:57;;;;;;;10.70;4.65;;;6.00;99.90;;;5.58;100.00;100743.69;5074125;28;20078;-63
2021/05/06 01:04:44;;;;;;;7.40;5.13;;;5.80;99.90;;;5.51;100.00;100735.47;5073882;28;20384;-61
2021/05/06 01:12:21;;;;;;;7.10;5.85;;;5.70;99.90;;;5.69;100.00;100727.16;5074648;28;20544;-61
2021/05/06 01:14:47;;;;;;;8.88;5.82;;;5.70;99.90;;;5.76;100.00;100726.28;5075024;28;20218;-60
2021/05/06 01:17:13;;;;;;;6.80;6.10;;;5.70;99.90;;;5.76;100.00;100720.03;5073643;28;20510;-60
2021/05/06 01:19:39;;;;;;;7.60;5.97;;;5.70;99.90;;;5.71;100.00;100717.88;5073604;28;20024;-59
2021/05/06 01:22:04;;;;;;;8.40;5.93;;;5.80;99.90;;;5.78;100.00;100712.59;5074684;28;20046;-61
2021/05/06 01:24:33;;;;;;;8.43;6.28;;;5.80;99.90;;;5.83;100.00;100707.53;5056721;28;20029;-59
2021/05/06 01:27:04;;;;;;;8.98;5.80;;;5.90;99.90;;;5.84;100.00;100712.78;5056908;28;20031;-60
2021/05/06 01:29:35;;;;;;;8.23;6.38;;;5.90;99.90;;;5.94;100.00;100714.47;5073312;28;20040;-59
2021/05/06 01:34:49;;;;;;;9.40;6.88;;;6.00;99.90;;;5.78;100.00;100701.81;5073731;28;20047;-60
2021/05/06 01:37:21;;;;;;;8.13;6.60;;;6.00;99.90;;;5.72;100.00;100707.91;5073257;28;20467;-60
2021/05/06 01:40:42;;;;;;;8.70;6.70;;;6.00;99.90;;;5.64;100.00;100708.78;5041599;28;20202;-62
2021/05/06 01:42:43;;;;;;;9.90;6.60;;;6.00;99.90;;;5.61;100.00;100706.41;5055770;28;20040;-58
2021/05/06 01:58:39;;;;;;;8.50;5.97;;;5.50;99.90;;;5.03;100.00;100690.44;5059362;28;20122;-60
2021/05/06 02:01:06;;;;;;;11.23;6.43;;;5.40;99.90;;;4.86;100.00;100688.72;5072885;28;20036;-61
2021/05/06 02:03:33;;;;;;;10.25;6.75;;;5.30;99.90;;;4.84;100.00;100696.16;5072509;28;20072;-60
2021/05/06 02:06:00;;;;;;;19.30;9.35;;;5.20;99.90;;;4.83;100.00;100686.38;5055877;28;20090;-60
2021/05/06 02:08:28;;;;;;;13.50;7.82;;;5.10;99.90;;;4.68;100.00;100687.03;5056025;28;20037;-61
2021/05/06 02:10:57;;;;;;;13.90;8.02;;;5.00;99.90;;;4.68;100.00;100681.66;5056067;28;20469;-59
2021/05/06 02:13:24;;;;;;;12.20;7.97;;;5.00;99.90;;;4.60;100.00;100695.13;5072652;28;20055;-59
2021/05/06 02:15:56;;;;;;;12.43;8.90;;;5.00;99.90;;;4.63;100.00;100683.97;5073617;28;20029;-62
2021/05/06 02:18:23;;;;;;;14.93;9.45;;;4.90;99.90;;;4.56;100.00;100687.50;5072299;28;20037;-62
2021/05/06 02:20:51;;;;;;;17.55;9.48;;;4.90;99.90;;;4.66;100.00;100683.66;5072421;28;20028;-59
2021/05/06 02:23:17;;;;;;;13.95;9.63;;;4.80;99.90;;;4.65;100.00;100683.81;5055871;28;20048;-59
2021/05/06 02:25:44;;;;;;;16.10;10.20;;;4.80;99.90;;;4.61;100.00;100671.69;5072313;28;20109;-62
2021/05/06 02:28:11;;;;;;;17.05;10.50;;;4.90;99.90;;;4.59;100.00;100679.09;5055746;28;20086;-59
2021/05/06 02:30:38;;;;;;;13.40;9.63;;;4.80;99.90;;;4.63;100.00;100681.28;5072209;28;20115;-59
2021/05/06 02:33:07;;;;;;;13.65;10.70;;;4.80;99.90;;;4.64;100.00;100671.34;5073391;28;20029;-62
2021/05/06 02:35:34;;;;;;;19.77;11.07;;;4.80;99.90;;;4.68;100.00;100670.84;5072316;28;20506;-59
2021/05/06 02:38:01;;;;;;;15.52;10.98;;;4.80;99.90;;;4.65;100.00;100673.88;5055384;28;20049;-60
2021/05/06 02:40:27;;;;;;;16.00;10.40;;;4.90;99.90;;;4.58;100.00;100670.19;5072034;28;20037;-59
2021/05/06 02:42:53;;;;;;;18.10;12.32;;;4.90;99.90;;;4.63;100.00;100666.97;5055375;28;20045;-59
2021/05/06 02:45:19;;;;;;;17.88;11.98;;;4.80;99.90;;;4.62;100.00;100660.75;5071969;28;20032;-59
2021/05/06 02:47:45;;;;;;;21.38;11.70;;;4.80;99.90;;;4.71;100.00;100661.59;5072073;28;20445;-58
2021/05/06 02:50:15;;;;;;;19.23;11.40;;;4.80;99.90;;;4.66;100.00;100662.09;5071964;28;20041;-58
2021/05/06 02:52:54;;;;;;;19.65;12.00;;;4.80;99.90;;;4.62;100.00;100658.06;5056152;28;20063;-59
2021/05/06 02:57:54;;;;;;;17.60;11.48;;;4.80;99.90;;;4.55;100.00;100656.19;5073306;28;20057;-59
2021/05/06 03:03:06;;;;;;;20.10;11.45;;;4.70;99.90;;;4.47;100.00;100651.63;5072075;28;20426;-59
2021/05/06 03:05:34;;;;;;;15.77;11.48;;;4.60;99.90;;;4.44;100.00;100657.34;5055113;28;20024;-58
2021/05/06 03:08:08;;;;;;;21.30;12.85;;;4.70;99.90;;;4.51;100.00;100646.75;5055377;28;20028;-58
2021/05/06 03:22:41;;;;;;;14.93;11.45;;;4.70;99.90;;;4.71;100.00;100638.19;5071894;28;20044;-59
2021/05/06 03:23:57;;;;;;;19.13;10.90;;;4.80;99.90;;;4.68;100.00;100643.91;5064166;28;20044;-59
2021/05/06 03:26:23;;;;;;;17.00;11.05;;;4.80;99.90;;;4.94;100.00;100640.22;5075248;28;20025;-59
2021/05/06 03:28:54;;;;;;;17.10;11.10;;;4.90;99.90;;;4.92;100.00;100642.22;5075672;28;20405;-59
2021/05/06 03:31:42;;;;;;;15.88;10.57;;;5.00;99.90;;;5.02;100.00;100645.59;5075942;28;20032;-59
2021/05/06 04:03:13;;;;;;;20.30;12.15;;;5.50;99.90;;;5.47;100.00;100623.44;5031199;28;20129;-58
2021/05/06 04:13:11;;;;;;;17.23;12.80;;;5.90;99.90;;;5.52;100.00;100620.22;5076451;28;20059;-59
2021/05/06 04:37:26;;;;;;;16.30;11.93;;;5.90;99.90;;;5.65;100.00;100628.59;5073680;28;20047;-59
2021/05/06 05:04:17;;;;;;;15.57;8.80;;;5.90;99.90;;;5.82;100.00;100627.53;5074412;28;20048;-62
2021/05/06 05:06:53;;;;;;;8.70;6.85;;;6.00;99.90;;;5.80;100.00;100619.59;5060385;28;20076;-58
2021/05/06 05:11:53;;;;;;;8.05;6.30;;;6.10;99.90;;;6.08;100.00;100620.03;5075198;28;20138;-60
2021/05/06 05:20:10;;;;;;;6.80;5.00;;;6.40;99.90;;;6.26;100.00;100618.91;5060268;28;20190;-62
2021/05/06 05:25:34;;;;;;;9.23;4.97;;;6.50;99.90;;;6.24;100.00;100618.22;5074091;28;20128;-66
2021/05/06 05:28:03;;;;;;;11.45;5.35;;;6.40;99.90;;;6.31;100.00;100614.66;5073781;28;20120;-65
2021/05/06 05:30:30;;;;;;;7.95;5.25;;;6.50;99.90;;;6.55;100.00;100624.44;5073614;28;20078;-67
2021/05/06 05:32:57;;;;;;;7.65;5.55;;;6.60;99.90;;;8.44;100.00;100623.13;5073407;28;20074;-67
2021/05/06 05:38:06;;;;;;;6.30;4.60;;;8.30;99.90;;;9.45;94.51;100622.78;5073717;28;20079;-61
2021/05/06 05:40:40;;;;;;;6.05;5.20;;;8.80;99.90;;;9.79;93.47;100625.50;5058226;28;20453;-62
2021/05/06 05:43:57;;;;;;;5.85;5.00;;;9.10;99.90;;;12.16;88.28;100630.34;5073577;28;20056;-61
2021/05/06 05:56:18;;;;;;;6.25;4.00;;;17.80;96.70;;;23.03;39.02;100622.31;5074557;28;20552;-60
2021/05/06 05:58:44;;;;;;;3.95;3.55;;;19.60;94.30;;;24.09;32.53;100628.88;5073845;28;20044;-63
2021/05/06 06:01:10;;;;;;;5.45;3.92;;;21.00;89.20;;;25.35;31.40;100617.97;5072463;28;20055;-61
2021/05/06 06:03:35;;;;;;;4.20;3.67;;;22.20;87.20;;;25.92;28.92;100627.00;5056189;28;20036;-60
2021/05/06 06:06:02;;;;;;;4.60;3.25;;;23.20;81.50;;;26.82;27.82;100623.47;5056088;28;20058;-61
2021/05/06 06:08:30;;;;;;;5.05;3.47;;;24.10;79.30;;;27.33;26.68;100627.84;5056267;28;20063;-62
2021/05/06 06:10:56;;;;;;;4.72;3.75;;;24.90;76.60;;;27.89;25.51;100623.63;5073017;28;20044;-61
2021/05/06 06:13:22;;;;;;;5.05;4.40;;;25.50;73.40;;;28.10;24.93;100636.72;5074151;28;20059;-61
2021/05/06 06:15:55;;;;;;;5.07;3.92;;;25.90;71.90;;;28.56;24.49;100637.44;5055935;28;20604;-62
2021/05/06 06:18:32;;;;;;;4.93;4.22;;;26.40;70.80;;;28.58;24.07;100630.34;5072408;28;20078;-60
2021/05/06 06:21:07;;;;;;;6.30;3.72;;;26.80;68.60;;;29.15;23.46;100628.28;5072565;28;20032;-65
2021/05/06 06:23:33;;;;;;;4.43;3.80;;;27.30;67.50;;;29.88;22.54;100623.59;5056964;28;20055;-61
2021/05/06 06:25:59;;;;;;;5.72;4.13;;;27.70;66.60;;;30.60;22.03;100627.41;5073580;28;20551;-63
2021/05/06 06:28:28;;;;;;;3.50;3.20;;;28.30;65.50;;;31.23;20.33;100622.69;5055598;28;20402;-62
2021/05/06 06:30:55;;;;;;;4.13;3.72;;;28.90;63.80;;;31.45;20.48;100627.13;5055773;28;20033;-61
2021/05/06 06:33:21;;;;;;;6.05;3.60;;;29.30;62.70;;;31.93;19.87;100632.09;5039532;28;20441;-66
2021/05/06 06:35:49;;;;;;;5.18;4.20;;;29.70;61.50;;;32.35;19.13;100635.56;5072293;28;20029;-64
2021/05/06 06:38:15;;;;;;;5.40;3.55;;;30.20;60.10;;;31.78;19.79;100636.41;5056145;28;20554;-61
2021/05/06 06:40:40;;;;;;;4.43;3.58;;;30.30;58.90;;;32.72;19.78;100634.41;5055519;28;20033;-60
2021/05/06 06:43:06;;;;;;;3.53;2.72;;;30.60;59.70;;;33.84;18.01;100631.69;5055548;28;20402;-61
2021/05/06 06:45:32;;;;;;;4.55;3.40;;;31.40;58.00;;;33.68;17.70;100630.78;5072106;28;20182;-66
2021/05/06 06:47:58;;;;;;;3.28;2.50;;;31.80;56.90;;;32.37;19.44;100628.41;5071918;28;20054;-64
2021/05/06 06:50:24;;;;;;;4.82;3.58;;;31.30;56.50;;;31.62;20.42;100630.56;5072317;28;20033;-64
2021/05/06 06:52:50;;;;;;;2.92;2.67;;;30.70;57.00;;;31.52;19.95;100619.75;5071977;28;20025;-61
2021/05/06 06:55:16;;;;;;;4.15;2.88;;;30.30;57.00;;;32.50;19.65;100626.41;5072149;28;20051;-73
2021/05/06 06:57:42;;;;;;;5.75;2.40;;;30.60;57.50;;;33.23;18.47;100620.66;5073078;28;20054;-72
2021/05/06 07:00:08;;;;;;;3.65;2.47;;;31.10;55.80;;;33.69;18.12;100626.78;5072801;28;20032;-71
2021/05/06 07:02:34;;;;;;;2.15;1.90;;;31.60;55.20;;;33.99;17.22;100610.25;5073398;28;20079;-69
2021/05/06 07:05:00;;;;;;;2.58;1.98;;;31.90;54.40;;;34.45;17.12;100619.94;5055115;28;20471;-68
2021/05/06 07:07:26;;;;;;;3.45;1.85;;;32.40;53.90;;;33.10;18.45;100619.00;5054944;28;20079;-68
2021/05/06 07:09:52;;;;;;;4.50;1.70;;;32.10;53.70;;;30.91;19.97;100624.25;5055349;28;20040;-69
2021/05/06 07:12:18;;;;;;;2.80;1.77;;;30.90;53.70;;;28.69;22.50;100616.84;5072962;28;20044;-69
2021/05/06 07:14:47;;;;;;;2.95;1.45;;;29.40;53.70;;;26.41;24.92;100612.38;5055235;28;20028;-68
2021/05/06 07:17:13;;;;;;;3.03;1.20;;;27.60;54.80;;;24.34;28.31;100613.84;5055349;28;20060;-68
2021/05/06 07:19:39;;;;;;;2.45;1.20;;;25.90;57.00;;;22.69;29.90;100617.50;5072356;28;20375;-67
2021/05/06 07:22:05;;;;;;;4.68;1.02;;;24.20;57.60;;;21.37;31.72;100612.34;5073015;28;20039;-68
2021/05/06 07:24:32;;;;;;;2.40;1.60;;;22.70;59.10;;;20.29;34.45;100617.06;5055005;28;20098;-68
2021/05/06 07:27:00;;;;;;;3.28;1.83;;;21.40;61.90;;;20.01;35.53;100614.69;5073058;28;20486;-68
2021/05/06 07:29:26;;;;;;;1.38;1.10;;;20.70;63.80;;;21.01;35.87;100607.84;5072725;28;20037;-70
2021/05/06 07:31:53;;;;;;;2.47;1.48;;;20.60;66.50;;;22.64;31.94;100609.22;5071679;28;20035;-69
2021/05/06 07:34:19;;;;;;;2.40;1.58;;;21.30;65.10;;;24.26;29.84;100611.75;5071681;28;20032;-70
2021/05/06 07:36:46;;;;;;;6.30;1.13;;;22.50;64.70;;;26.94;25.76;100614.56;5071846;28;20043;-71
2021/05/06 07:39:12;;;;;;;3.10;1.50;;;24.10;61.90;;;28.70;23.27;100615.69;5071555;28;20403;-67
2021/05/06 07:41:38;;;;;;;3.60;1.55;;;25.80;59.30;;;29.96;22.08;100613.50;5054937;28;20036;-68
2021/05/06 07:44:04;;;;;;;1.05;1.00;;;27.20;58.60;;;31.59;20.62;100613.56;5054866;28;20081;-69
2021/05/06 07:46:30;;;;;;;1.65;1.42;;;28.60;57.80;;;31.67;19.11;100615.50;5071258;28;20427;-69
2021/05/06 07:48:56;;;;;;;1.48;1.30;;;29.50;54.60;;;31.91;19.08;100620.34;5071410;28;20098;-70
2021/05/06 07:51:22;;;;;;;1.48;1.23;;;29.90;54.40;;;32.59;19.28;100624.28;5054668;28;20037;-67
2021/05/06 07:53:50;;;;;;;1.10;1.00;;;30.40;55.10;;;33.84;18.88;100624.03;5071231;28;20040;-69
2021/05/06 07:56:17;;;;;;;3.22;1.42;;;31.50;55.20;;;34.47;17.66;100618.38;5071453;28;20032;-71
2021/05/06 07:58:44;;;;;;;2.05;1.30;;;32.00;54.00;;;34.20;16.42;100616.47;5071103;28;20483;-66
2021/05/06 08:01:11;;;;;;;3.03;1.23;;;32.50;51.40;;;34.92;16.75;100620.66;5054686;28;20039;-69
2021/05/06 08:03:37;;;;;;;1.63;1.10;;;33.10;51.70;;;33.00;16.92;100623.16;5072492;28;20040;-68
2021/05/06 08:06:04;;;;;;;3.25;1.65;;;32.40;49.60;;;29.42;19.96;100629.97;5054618;28;20555;-68
2021/05/06 08:08:30;;;;;;;1.48;1.15;;;30.70;49.60;;;30.18;20.58;100626.47;5054676;28;20029;-69
2021/05/06 08:10:58;;;;;;;1.45;1.00;;;29.90;52.10;;;31.04;19.26;100611.88;5055181;28;20063;-69
2021/05/06 08:13:28;;;;;;;2.42;1.60;;;30.20;50.90;;;31.55;18.80;100609.78;5075073;28;20600;-68
2021/05/06 08:15:55;;;;;;;2.95;1.30;;;30.50;51.20;;;29.21;20.50;100614.94;5058794;28;20037;-72
2021/05/06 08:18:22;;;;;;;2.63;1.45;;;29.50;50.30;;;28.30;21.96;100604.59;5058300;28;20434;-69
2021/05/06 08:20:47;;;;;;;4.30;1.50;;;28.50;51.40;;;28.70;23.34;100605.31;5074810;28;20067;-69
2021/05/06 08:23:13;;;;;;;2.05;1.30;;;28.00;53.70;;;30.23;20.27;100596.22;5075957;28;20540;-68
2021/05/06 08:25:40;;;;;;;1.95;1.73;;;28.60;52.60;;;30.05;20.02;100589.03;5075950;28;20123;-68
2021/05/06 08:28:07;;;;;;;2.05;1.10;;;29.00;51.20;;;32.13;17.38;100593.72;5074667;28;20029;-67
2021/05/06 08:30:34;;;;;;;2.65;1.35;;;30.00;50.20;;;33.66;17.14;100587.97;5058206;28;20128;-69
2021/05/06 08:33:02;;;;;;;3.00;1.20;;;31.00;50.70;;;32.73;18.17;100590.91;5057947;28;20152;-68
2021/05/06 08:35:28;;;;;;;1.67;1.35;;;31.40;50.60;;;33.01;18.72;100593.78;5074386;28;20037;-64
2021/05/06 08:37:54;;;;;;;2.05;1.50;;;31.60;51.20;;;33.34;18.54;100604.03;5074389;28;20050;-66
2021/05/06 08:40:21;;;;;;;2.28;1.45;;;32.00;51.30;;;31.78;16.98;100605.44;5057899;28;20039;-63
2021/05/06 08:42:50;;;;;;;1.85;1.40;;;31.40;47.20;;;30.33;20.14;100597.81;5057950;28;20032;-61
2021/05/06 08:45:17;;;;;;;2.80;1.50;;;30.30;50.00;;;30.50;19.66;100597.69;5058155;28;20063;-64
2021/05/06 08:47:45;;;;;;;3.10;1.70;;;30.00;50.00;;;29.23;20.49;100607.03;5074333;28;20028;-67
2021/05/06 08:50:16;;;;;;;5.82;1.42;;;29.20;49.40;;;28.20;22.05;100602.09;5074859;28;20074;-64
2021/05/06 08:52:42;;;;;;;2.40;1.25;;;28.40;50.10;;;27.30;23.50;100595.78;5074057;28;20371;-62
2021/05/06 08:55:09;;;;;;;1.98;1.75;;;27.50;51.90;;;26.60;25.03;100595.50;5057575;28;20085;-63
2021/05/06 08:57:35;;;;;;;2.42;1.73;;;26.70;53.40;;;28.38;22.98;100598.16;5057305;28;20040;-63
2021/05/06 09:00:00;;;;;;;1.85;1.38;;;27.10;53.10;;;30.41;19.71;100596.09;5057298;28;20032;-65
2021/05/06 09:02:26;;;;;;;2.20;1.83;;;28.10;51.30;;;30.91;17.78;100587.69;5073972;28;20071;-65
2021/05/06 09:04:52;;;;;;;1.35;1.25;;;29.10;49.60;;;28.93;18.86;100600.41;5057326;28;20046;-63
2021/05/06 09:07:18;;;;;;;2.95;1.27;;;28.70;48.50;;;27.68;21.52;100601.81;5073809;28;20566;-66
2021/05/06 09:09:50;;;;;;;2.25;1.48;;;27.80;49.60;;;27.11;22.76;100597.94;5057301;28;20036;-66
2021/05/06 09:12:33;;;;;;;3.22;1.67;;;27.10;51.30;;;27.91;22.51;100598.94;5073956;28;20029;-65
2021/05/06 09:15:16;;;;;;;2.05;1.45;;;27.00;51.90;;;28.01;21.38;100604.25;5059833;28;20115;-65
2021/05/06 09:17:42;;;;;;;2.17;1.73;;;27.30;50.60;;;26.83;23.59;100596.38;5057282;28;20037;-66
2021/05/06 09:20:27;;;;;;;5.22;1.73;;;26.80;51.70;;;27.08;24.04;100593.81;5073892;28;20455;-65
2021/05/06 09:22:57;;;;;;;3.53;1.83;;;26.60;52.90;;;27.16;23.58;100588.59;5073300;28;20086;-64
2021/05/06 09:25:31;;;;;;;4.25;1.77;;;26.50;52.60;;;28.21;23.83;100592.53;5073485;28;20406;-65
2021/05/06 09:28:08;;;;;;;2.88;1.80;;;26.70;55.00;;;28.29;20.95;100593.69;5074973;28;20032;-65
2021/05/06 09:30:38;;;;;;;2.75;2.10;;;27.20;50.60;;;28.98;21.86;100589.06;5074111;28;20021;-64
2021/05/06 09:33:09;;;;;;;2.25;1.40;;;27.70;52.20;;;29.31;20.90;100585.72;5056919;28;20028;-65
2021/05/06 09:35:47;;;;;;;2.53;1.98;;;28.00;51.10;;;29.74;20.71;100589.28;5074512;28;20039;-63
2021/05/06 09:38:27;;;;;;;2.13;1.90;;;28.30;51.30;;;27.78;22.47;100590.34;5073422;28;20033;-66
2021/05/06 09:40:53;;;;;;;2.63;1.90;;;27.80;50.50;;;27.48;22.48;100591.13;5074589;28;20108;-64
2021/05/06 09:43:35;;;;;;;4.85;1.90;;;27.30;50.80;;;26.62;22.41;100582.03;5074744;28;20094;-65
2021/05/06 09:46:02;;;;;;;2.88;1.80;;;26.60;49.90;;;26.01;24.43;100588.88;5057509;28;20384;-64
2021/05/06 09:48:28;;;;;;;4.82;1.90;;;26.00;52.10;;;26.30;24.35;100583.00;5073271;28;20028;-64
2021/05/06 09:51:04;;;;;;;2.53;1.70;;;25.80;52.60;;;27.42;24.14;100581.22;5056503;28;20049;-65
2021/05/06 09:53:32;;;;;;;3.55;2.53;;;26.20;53.00;;;29.43;22.42;100583.09;5056624;28;20425;-68
2021/05/06 09:56:04;;;;;;;3.22;2.10;;;27.30;53.70;;;29.64;20.32;100578.41;5073165;28;20029;-67
2021/05/06 09:58:32;;;;;;;4.00;2.20;;;28.10;51.20;;;31.61;20.19;100574.59;5073469;28;20101;-69
2021/05/06 10:01:09;;;;;;;2.85;2.00;;;29.30;52.80;;;32.23;18.73;100582.03;5056378;28;20028;-67
2021/05/06 10:03:35;;;;;;;4.80;1.80;;;30.00;51.40;;;32.47;19.38;100579.19;5056110;28;20028;-69
2021/05/06 10:06:16;;;;;;;3.70;2.10;;;30.50;52.50;;;33.09;17.40;100572.22;5074326;28;20032;-67
2021/05/06 10:08:42;;;;;;;2.85;1.77;;;31.10;48.30;;;33.82;16.58;100574.72;5072675;28;20071;-69
2021/05/06 10:11:21;;;;;;;4.03;1.60;;;31.80;49.30;;;33.07;14.89;100577.44;5072696;28;20040;-69
2021/05/06 10:13:49;;;;;;;1.90;1.67;;;32.10;47.40;;;33.35;17.09;100577.44;5074108;28;20093;-68
2021/05/06 10:16:17;;;;;;;3.78;1.70;;;32.10;48.10;;;33.40;15.37;100571.53;5089618;28;20052;-68
2021/05/06 10:18:46;;;;;;;2.92;1.90;;;32.40;46.50;;;33.33;17.73;100569.31;5073104;28;20127;-68
2021/05/06 10:21:16;;;;;;;2.83;1.92;;;32.30;49.10;;;33.91;18.53;100566.88;5074158;28;20033;-68
2021/05/06 10:23:48;;;;;;;2.75;1.90;;;32.50;50.90;;;33.77;15.32;100566.50;5072483;28;20395;-68
2021/05/06 10:26:15;;;;;;;4.15;2.53;;;32.60;45.80;;;31.90;17.86;100574.47;5073697;28;20029;-68
2021/05/06 10:28:42;;;;;;;4.07;2.00;;;32.00;47.00;;;30.95;19.83;100571.75;5072494;28;20068;-68
2021/05/06 10:31:09;;;;;;;3.28;2.30;;;30.90;48.80;;;29.62;18.80;100569.50;5072608;28;20040;-72
2021/05/06 10:33:40;;;;;;;3.10;2.30;;;30.10;46.60;;;29.23;20.79;100562.94;5074104;28;20033;-70
2021/05/06 10:36:07;;;;;;;4.22;2.35;;;29.40;47.90;;;29.44;22.07;100563.13;5072551;28;20040;-66
2021/05/06 10:38:39;;;;;;;5.20;2.55;;;29.10;50.60;;;28.75;22.43;100556.72;5055977;28;20123;-69
2021/05/06 10:41:31;;;;;;;3.75;2.53;;;28.40;50.00;;;26.86;23.42;100559.41;5056206;28;20040;-67
2021/05/06 10:44:03;;;;;;;3.72;3.42;;;27.60;51.10;;;25.10;28.07;100559.88;5073414;28;20514;-67
2021/05/06 10:47:02;;;;;;;4.40;3.20;;;26.30;53.20;;;24.42;25.52;100560.31;5072182;28;20016;-69
2021/05/06 10:49:40;;;;;;;4.90;2.78;;;25.30;51.00;;;23.70;27.57;100565.09;5073300;28;20035;-68
2021/05/06 10:52:09;;;;;;;4.53;3.28;;;24.40;52.50;;;23.39;29.92;100554.22;5072105;28;20033;-68
2021/05/06 10:54:51;;;;;;;4.68;3.38;;;23.80;55.40;;;22.99;29.61;100549.03;5072187;28;20024;-71
2021/05/06 10:57:19;;;;;;;3.28;2.78;;;23.40;54.90;;;22.81;31.94;100545.00;5073479;28;20466;-69
2021/05/06 10:59:47;;;;;;;4.93;3.45;;;23.00;58.10;;;22.78;32.34;100551.97;5071918;28;20032;-72
2021/05/06 11:02:44;;;;;;;6.85;4.07;;;22.80;58.40;;;21.60;30.99;100538.91;5073203;28;20394;-67
2021/05/06 11:05:21;;;;;;;4.28;3.33;;;22.40;55.20;;;22.25;30.64;100545.31;5073138;28;20031;-69
2021/05/06 11:08:05;;;;;;;5.57;3.67;;;22.30;57.00;;;21.83;29.34;100547.69;5071858;28;20074;-67
2021/05/06 11:10:45;;;;;;;8.82;4.03;;;22.10;54.70;;;21.43;31.29;100548.63;5072241;28;20037;-68
2021/05/06 11:13:10;;;;;;;4.68;4.13;;;21.70;56.40;;;21.43;32.75;100543.94;5072420;28;20086;-75
2021/05/06 11:15:37;;;;;;;5.40;4.72;;;21.50;58.30;;;21.59;33.63;100542.78;5072381;28;20386;-73
2021/05/06 11:18:09;;;;;;;5.55;3.92;;;21.40;60.10;;;21.57;30.80;100538.63;5055790;28;20036;-68
2021/05/06 11:20:46;;;;;;;4.80;3.63;;;21.30;57.10;;;21.82;33.58;100537.72;5073645;28;20055;-68
2021/05/06 11:23:25;;;;;;;6.15;4.43;;;21.30;60.90;;;21.75;31.57;100529.72;5072193;28;20043;-70
2021/05/06 11:26:08;;;;;;;5.72;3.80;;;21.40;58.70;;;21.31;32.08;100535.91;5071941;28;20033;-69
2021/05/06 11:28:38;;;;;;;6.27;4.13;;;21.20;58.50;;;21.33;32.54;100533.69;5073208;28;20388;-68
2021/05/06 11:31:04;;;;;;;4.55;3.63;;;21.20;59.00;;;21.40;32.62;100532.56;5073397;28;20537;-68
2021/05/06 11:33:29;;;;;;;4.72;3.90;;;21.00;58.70;;;21.31;32.49;100530.38;5071844;28;20510;-69
2021/05/06 11:36:11;;;;;;;4.90;3.97;;;21.00;59.10;;;21.24;31.60;100528.97;5055276;28;20036;-71
2021/05/06 11:38:36;;;;;;;5.60;4.03;;;20.90;58.90;;;21.23;32.72;100530.91;5072678;28;20028;-72
2021/05/06 11:41:08;;;;;;;5.43;4.13;;;20.80;59.40;;;20.81;31.43;100524.81;5071810;28;20047;-70
2021/05/06 11:43:40;;;;;;;4.53;3.95;;;20.80;56.80;;;20.53;33.34;100521.50;5055787;28;20083;-70
2021/05/06 11:46:14;;;;;;;7.75;4.38;;;20.60;60.00;;;19.94;34.38;100521.84;5072446;28;20142;-70
2021/05/06 11:48:45;;;;;;;;;;;20.40;59.30;;;20.38;33.59;100515.91;5060060;28;20486;-69
2021/05/06 11:51:35;;;;;;;6.50;4.20;;;20.30;59.40;;;20.56;32.08;100509.84;5076950;28;19912;-69
2021/05/06 11:54:14;;;;;;;11.10;7.63;;;20.30;58.80;;;20.47;34.54;100514.28;5075351;28;20031;-67
2021/05/06 11:56:54;;;;;;;6.13;3.53;;;20.30;61.40;;;20.73;33.46;100512.38;5076486;28;20033;-70
2021/05/06 11:59:27;;;;;;;4.88;4.15;;;20.30;60.40;;;20.54;33.29;100514.81;5076746;28;20032;-71
2021/05/06 12:01:54;;;;;;;8.10;3.80;;;20.20;60.60;;;20.45;33.22;100510.94;5075369;28;20028;-72
2021/05/06 12:04:36;;;;;;;6.25;4.10;;;20.00;59.60;;;20.24;33.82;100506.44;5075276;28;20037;-68
2021/05/06 12:07:14;;;;;;;7.82;4.00;;;19.90;60.30;;;20.15;34.14;100505.31;5076107;28;20049;-73
2021/05/06 12:09:40;;;;;;;9.13;4.30;;;19.80;60.60;;;20.04;34.59;100514.69;5075060;28;20040;-71
2021/05/06 12:12:07;;;;;;;6.63;4.20;;;19.70;60.70;;;19.98;35.35;100504.72;5058660;28;20041;-70
2021/05/06 12:14:36;;;;;;;5.63;4.25;;;19.60;62.00;;;19.94;34.86;100505.25;5076130;28;20111;-69
2021/05/06 12:17:06;;;;;;;6.40;3.65;;;19.60;61.80;;;19.82;35.75;100506.59;5076233;28;20134;-69
2021/05/06 12:19:40;;;;;;;4.70;3.55;;;19.50;62.30;;;19.96;35.22;100506.94;5076281;28;20035;-73
2021/05/06 12:22:06;;;;;;;6.57;4.10;;;19.50;62.10;;;19.83;33.80;100509.09;5076147;28;20028;-70
2021/05/06 12:24:38;;;;;;;6.57;3.38;;;19.50;60.10;;;19.83;34.71;100503.56;5058175;28;20025;-68
2021/05/06 12:27:20;;;;;;;5.40;3.47;;;19.50;61.50;;;19.66;32.61;100508.44;5075401;28;20039;-68
2021/05/06 12:30:11;;;;;;;6.28;3.70;;;19.50;58.70;;;19.82;33.16;100503.81;5074860;28;20119;-68
2021/05/06 12:32:43;;;;;;;4.93;2.78;;;19.40;59.40;;;19.19;33.68;100500.94;5061398;28;20025;-67
2021/05/06 12:35:10;;;;;;;8.68;3.78;;;19.20;60.40;;;19.50;34.45;100503.94;5075006;28;20112;-70
2021/05/06 12:37:41;;;;;;;4.88;2.40;;;19.10;60.70;;;19.23;31.79;100499.34;5075099;28;20133;-69
2021/05/06 12:40:13;;;;;;;4.47;2.83;;;19.10;58.30;;;19.19;35.57;100498.19;5059415;28;20387;-69
2021/05/06 12:42:39;;;;;;;4.97;3.13;;;19.00;61.60;;;19.43;35.78;100500.53;5076224;28;20044;-75
2021/05/06 12:45:14;;;;;;;3.70;2.92;;;18.90;62.40;;;19.49;34.21;100497.59;5076061;28;20043;-69
2021/05/06 12:47:45;;;;;;;9.35;3.45;;;19.00;60.90;;;19.57;35.59;100493.47;5075981;28;20368;-68
2021/05/06 12:50:21;;;;;;;8.23;3.33;;;19.10;62.20;;;19.48;35.29;100495.06;5075699;28;20033;-69
2021/05/06 12:53:08;;;;;;;5.40;3.60;;;19.10;61.90;;;19.43;35.20;100493.09;5075944;28;20483;-68
2021/05/06 12:55:40;;;;;;;7.28;3.05;;;19.00;61.70;;;19.37;34.00;100488.66;5075660;28;20390;-69
2021/05/06 12:58:24;;;;;;;4.25;3.00;;;19.00;60.50;;;19.03;37.07;100493.69;5057443;28;20093;-72
2021/05/06 13:00:52;;;;;;;6.25;3.17;;;19.00;62.50;;;19.20;35.12;100491.56;5075531;28;20041;-67
2021/05/06 13:03:33;;;;;;;5.28;3.08;;;18.90;61.50;;;19.03;37.39;100485.41;5075916;28;20024;-75
2021/05/06 13:06:08;;;;;;;7.03;2.75;;;18.70;63.20;;;18.21;37.29;100485.72;5074574;28;20071;-68
2021/05/06 13:08:39;;;;;;;6.95;3.17;;;18.40;62.50;;;18.45;37.98;100486.25;5073795;28;20094;-67
2021/05/06 13:11:08;;;;;;;5.72;2.50;;;18.30;63.80;;;18.17;37.92;100486.53;5074163;28;20490;-71
2021/05/06 13:13:43;;;;;;;2.80;2.08;;;18.00;63.50;;;18.04;40.47;100487.75;5058212;28;20040;-73
2021/05/06 13:16:12;;;;;;;2.50;2.00;;;17.90;66.60;;;17.38;42.02;100486.91;5074106;28;20064;-71
2021/05/06 13:18:38;;;;;;;4.63;2.05;;;17.70;66.40;;;17.10;43.85;100478.78;5057255;28;20040;-70
2021/05/06 13:21:20;;;;;;;3.40;1.95;;;17.40;68.50;;;17.32;42.58;100474.13;5075312;28;20032;-71
2021/05/06 13:23:46;;;;;;;3.92;2.10;;;17.30;68.20;;;17.63;42.24;100483.66;5074469;28;20033;-70
2021/05/06 13:26:12;;;;;;;5.57;3.00;;;17.40;67.90;;;17.66;42.83;100470.22;5057448;28;20073;-70
2021/05/06 13:28:37;;;;;;;3.35;2.33;;;17.60;68.50;;;17.99;40.84;100472.00;5074122;28;20178;-73